Challenge du Brabant Wallon

Le jogging du Buchet à Bierges (11.50 km)

dimanche 29 avril 2018

le Classement complet se trouve sur : http://www.challengebw.be/    
CHALLENGE BRABANT WALLON
LE JOGGING DU BUCHET - BIERGES
Distance : 11.50 km
dimanche 29 avril 2018
 
Place NOM Equipe Catégorie Pl/Cat. temps temps/km Vitesse
####              
1 MONTOISY ADRIEN TRAIN 7 M/30-39 1 00:38:31 03:21 17.91
2 ASRI ABDESSAMAD URBAN TRI TEAM M/30-39 2 00:39:38 03:27 17.41
3 DEMEKE MOLLA   M/40-49 1 00:40:44 03:33 16.94
4 VANDIEST TOM TRIGT M/30-39 3 00:41:08 03:35 16.77
5 MATTHYS ALEXIS BLANCS GILETS BW M/30-39 4 00:41:11 03:35 16.75
6 DEMEULEMEESTER GUILLAUME TRAIN 7 M/30-39 5 00:41:31 03:37 16.62
7 HEUNINCK ALEXANDRE   M/20-29 1 00:42:37 03:42 16.19
8 VANDERBECK YVES RONVAU M/50-59 1 00:42:54 03:44 16.08
9 IWENS ALAIN HOOIBERGLOPERS M/50-59 2 00:43:03 03:45 16.03
10 POGGI ELIO   M/30-39 6 00:43:18 03:46 15.94
11 WEITKUNAT BAPTISTE   M/20-29 2 00:43:20 03:46 15.92
12 DUPUIS CORENTIN RIWA M/30-39 7 00:43:25 03:47 15.89
13 VELOSO FRANCISCO TRAIN 7 M/50-59 3 00:43:39 03:48 15.81
14 BUIS QUENTIN RONVAU M/30-39 8 00:43:52 03:49 15.73
15 MOUREAU KEVIN JAMES M/30-39 9 00:43:58 03:49 15.69
16 DESCAMPE ARNAUD TRAIN 7 M/30-39 10 00:44:10 03:50 15.62
17 GHILAIN OLIVIER KURISTO M/30-39 11 00:44:30 03:52 15.51
18 DRUGMAND FABIAN ACLO M/40-49 2 00:44:30 03:52 15.51
19 MESSORI MIRCO ACLO M/50-59 4 00:44:38 03:53 15.46
20 RENARD PIERRE CEPAL M/50-59 5 00:44:49 03:54 15.40
21 NOUAMANI MOHAMMED JOGGANS M/40-49 3 00:45:02 03:55 15.32
22 MOORTGAT SEBASTIEN CABW M/20-29 3 00:45:09 03:56 15.28
23 VANDROOGENBROECK VIRGINIE TRAIN 7 D/40-49 1 00:46:02 04:00 14.99
24 MAHIA SEBASTIEN RUNATTITUDE M/30-39 12 00:46:09 04:01 14.95
25 LELIEVRE THIERRY JOGGANS M/40-49 4 00:46:45 04:04 14.76
26 VAN DEN BOER ROBERT   M/40-49 5 00:47:04 04:06 14.66
27 HUET BENJAMIN   M/20-29 4 00:47:05 04:06 14.65
28 QUEVY ERIC   M/50-59 6 00:47:06 04:06 14.65
29 DOLLINGER JEROME   M/20-29 5 00:47:11 04:06 14.62
30 CORVILAIN VINCENT ANTILOB M/40-49 6 00:47:18 04:07 14.59
31 CNOCQUART SEBASTIEN   M/40-49 7 00:47:25 04:07 14.55
32 DI VINCENZO PASCAL JAMES M/40-49 8 00:47:38 04:09 14.49
33 BORCY QUENTIN   M/20-29 6 00:47:44 04:09 14.46
34 JONCKHEERE LAURENT   M/20-29 7 00:47:50 04:10 14.43
35 SHEHU NASSER   M/50-59 7 00:47:56 04:10 14.39
36 RATINCKX JEAN-PHILIPPE RIWA M/30-39 13 00:47:58 04:10 14.38
37 DEMUNTER NICOLAS JOGGANS M/30-39 14 00:47:58 04:10 14.38
38 QUINTELA DANIEL   M/40-49 9 00:48:01 04:11 14.37
39 WIECZOR KEVIN ESM M/30-39 15 00:48:02 04:11 14.37
40 BERNARD LOUIS NAC M/50-59 8 00:48:06 04:11 14.35
41 DAMOISEAUX VINCENT KURISTO M/50-59 9 00:48:11 04:11 14.32
42 VAN DROOGENBROEK DIRK   M/40-49 10 00:48:12 04:11 14.32
43 PORRE LAURENT SBT M/40-49 11 00:48:13 04:12 14.31
44 LAHAYE VINCENT RUNNING GREZ M/20-29 8 00:48:18 04:12 14.29
45 DE PRA DAMIEN RIWA M/30-39 16 00:48:23 04:12 14.26
46 PIRE IONATHAN   M/30-39 17 00:48:32 04:13 14.22
47 RENCKENS AN SPORTIVAMENTE D/30-39 1 00:48:54 04:15 14.11
48 DEMUYSER CHRISTOPHE SPT WAVRE M/30-39 18 00:48:55 04:15 14.11
49 ROSSIGNOL OLIVIER SPORTIVAMENTE M/40-49 12 00:48:58 04:15 14.09
50 VERBESSELT TONY   M/40-49 13 00:49:01 04:16 14.08
51 GIGOT JACQUES CEPAL M/50-59 10 00:49:02 04:16 14.07
52 DELPIERRE ROMAIN TRIGT M/20-29 9 00:49:05 04:16 14.06
53 WERTZ NICOLAS NAC M/30-39 19 00:49:06 04:16 14.05
54 CORDIER PASCAL URBAN TRI TEAM M/40-49 14 00:49:08 04:16 14.04
55 COPPE LASZLO   M/20-29 10 00:49:12 04:17 14.02
56 NEMEGAIRE LAURENT   M/40-49 15 00:49:14 04:17 14.01
57 RYCKMANS LOUIS   M/20-29 11 00:49:22 04:18 13.98
58 DEPOUILLE HENRI-FRANCOIS   M/40-49 16 00:49:23 04:18 13.97
59 GHYSSELINCKX CHRISTOPHE JAMES M/30-39 20 00:49:27 04:18 13.95
60 DURVIAUX ANTOINE   M/20-29 12 00:49:30 04:18 13.94
61 HAULAIT SANDRA CEPAL D/30-39 2 00:49:34 04:19 13.92
62 RENS JEAN   M/40-49 17 00:49:43 04:19 13.88
63 NIEGHO MIKE RIAAC M/30-39 21 00:49:43 04:19 13.88
64 LEMAIRE SEBASTIEN CS DYL.G M/20-29 13 00:49:45 04:20 13.87
65 SIMEONS PATRICK NAC M/30-39 22 00:49:49 04:20 13.85
66 COLPAERT PIERRE EMMANUEL   M/20-29 14 00:49:52 04:20 13.84
67 NOTERMAN NICOLAS   M/30-39 23 00:49:56 04:21 13.82
68 VERSCHUEREN EDDY   M/40-49 18 00:49:58 04:21 13.81
69 LEJEUNE LUDOVIC RIWA M/30-39 24 00:50:01 04:21 13.80
70 RENDERS MARLEEN   D/30-39 3 00:50:05 04:21 13.78
71 GOFFOY LARRY JE COURS A INCOURT M/30-39 25 00:50:07 04:21 13.77
72 PUTZEYS MATHIEU TRAIN 7 M/40-49 19 00:50:09 04:22 13.76
73 RECOUR LAURENT TRAIN 7 M/40-49 20 00:50:10 04:22 13.75
74 COUVREUR DIDIER   M/50-59 11 00:50:12 04:22 13.75
75 VINCKENBOSCH JEAN SEBASTIEN   M/20-29 15 00:50:14 04:22 13.74
76 JEUNIAUX OLIVIER JCPMF EVERE M/40-49 21 00:50:19 04:23 13.71
77 GICQUEL DONATIENNE JAMES D/30-39 4 00:50:25 04:23 13.69
78 SCUBLA MICHAEL NAC M/30-39 26 00:50:27 04:23 13.68
79 SIMONET PATRICK JAMES M/40-49 22 00:50:28 04:23 13.67
80 CHAMPAGNE JEAN-CHRISTOPHE JE COURS A INCOURT M/30-39 27 00:50:34 04:24 13.65
81 DE GRAVE OLIVIER MYSTERE M/50-59 12 00:50:36 04:24 13.64
82 VAN PARIJS PIERRE-EMMANUEL   M/30-39 28 00:50:41 04:24 13.61
83 CHARLOTEAUX NICOLAS   M/30-39 29 00:50:45 04:25 13.60
84 DEFAWE JEAN BATISTE RIWA M/20-29 16 00:50:47 04:25 13.59
85 KAMP OLIVIER MAGICOS M/40-49 23 00:50:48 04:25 13.58
86 VERMAELEN JOHAN DEMARSIN M/40-49 24 00:50:50 04:25 13.57
87 DERMIENS OLIVIER JCPMFMONT ST GUIBERT M/40-49 25 00:50:53 04:25 13.56
88 KASPRZYK KRZYSZTOF   M/40-49 26 00:50:56 04:26 13.55
89 HERENG OLIVIER RIWA M/40-49 27 00:50:59 04:26 13.53
90 ABS DIMITRI   M/30-39 30 00:50:59 04:26 13.53
91 BRUYERE NICOLAS   M/30-39 31 00:51:02 04:26 13.52
92 LUYCKFASSEEL YANN   M/30-39 32 00:51:05 04:27 13.51
93 BURNOTTE ALEXANDRE   M/30-39 33 00:51:08 04:27 13.49
94 GILLOT GAELLE CAB D/20-29 1 00:51:14 04:27 13.47
95 GELDOF BARTHELEMY   M/20-29 17 00:51:16 04:27 13.46
96 LUTS DANIEL LIEKERKE M/60-69 1 00:51:19 04:28 13.45
97 HASSOUTE EL MOUSSTAPHA MYSTERE M/50-59 13 00:51:20 04:28 13.44
98 SIRAGUSA SALVATORE NAC M/40-49 28 00:51:27 04:28 13.41
99 BROGNIET THOMAS   M/20-29 18 00:51:39 04:29 13.36
100 STOCKMANS FRANCOIS RCB M/50-59 14 00:51:47 04:30 13.32
101 MONTERO PIERRE AXA TEAM M/50-59 15 00:51:47 04:30 13.32
102 MICHIELS ERIK AFFLIGEM   M/40-49 29 00:51:49 04:30 13.32
103 LUYCKFASSEEL HUGUES   M/30-39 34 00:51:50 04:30 13.31
104 COBBAERT NICOLAS ANTILOB M/30-39 35 00:51:52 04:31 13.30
105 DELHOVE FRANCOIS NAC M/40-49 30 00:51:54 04:31 13.29
106 CORNET DANIEL ESM M/40-49 31 00:51:57 04:31 13.28
107 GAUSSET OLIVIER AXA TEAM M/50-59 16 00:51:59 04:31 13.27
108 DELAERE CHRISTOPHE JAMES M/50-59 17 00:52:03 04:32 13.26
109 DEVICK EMILY NAC D/40-49 2 00:52:10 04:32 13.23
110 DEWANDRE THOMAS   M/30-39 36 00:52:14 04:33 13.21
111 BAUWIN BERTRAND   M/30-39 37 00:52:18 04:33 13.19
112 DEWILLE MICHEL ESM M/30-39 38 00:52:20 04:33 13.18
113 LAMBERT ANTOINE JCPMFMONT ST GUIBERT M/30-39 39 00:52:24 04:33 13.17
114 EVEN JEAN-MARIE CEPAL M/50-59 18 00:52:27 04:34 13.16
115 STORM JEAN-PAUL   M/50-59 19 00:52:34 04:34 13.13
116 LAMBERT FRANCOIS RONVAU M/30-39 40 00:52:35 04:34 13.12
117 MORALES RAFAEL SWIFT M/40-49 32 00:52:38 04:35 13.11
118 LEJEUNE AXEL   M/20-29 19 00:52:39 04:35 13.11
119 MICHOTTE MARC KURISTO M/50-59 20 00:52:44 04:35 13.08
120 MATTART DENIS JE COURS A INCOURT M/30-39 41 00:52:47 04:35 13.07
121 PIRAUX ELISE JAMES D/20-29 2 00:52:47 04:35 13.07
122 LEFEVRE LAURENT JOGGING TRAIL PASSIO M/30-39 42 00:52:51 04:36 13.06
123 DEGEEST BASTIEN   M/20-29 20 00:52:54 04:36 13.04
124 GUSTIN JEROME RONVAU M/30-39 43 00:52:57 04:36 13.03
125 PIRENNE ANTOINE   M/30-39 44 00:52:58 04:36 13.03
126 SPITAELS JONATHAN   M/30-39 45 00:53:04 04:37 13.00
127 PONTI ANGELO NAC M/40-49 33 00:53:08 04:37 12.99
128 NUYTS GEERT   M/40-49 34 00:53:10 04:37 12.98
129 EL KAJJAL MOHAMED ESM M/50-59 21 00:53:13 04:38 12.97
130 MEIRA Y DURAN OCTAVIO   M/60-69 2 00:53:18 04:38 12.95
131 ATTIA SELIM   M/30-39 46 00:53:20 04:38 12.94
132 MAILIER CHRISTIAN ESM M/60-69 3 00:53:30 04:39 12.90
133 DECAMPS ERIC ESM M/50-59 22 00:53:31 04:39 12.89
134 COREMANS CYRIEL ROBA M/70 &+ 1 00:53:32 04:39 12.89
135 RAVYTS ALAIN   M/50-59 23 00:53:33 04:39 12.89
136 VAN DE LEEST HARRY KNOET M/60-69 4 00:53:35 04:40 12.88
137 VERVLOESEM XAVIER TOUSPORT1 M/50-59 24 00:53:39 04:40 12.86
138 DECLERCQ JOE CEPAL M/60-69 5 00:53:42 04:40 12.85
139 DEBRUYN THIERRY JAMES M/50-59 25 00:53:42 04:40 12.85
140 VAN POUCKE JOSE IND M/50-59 26 00:53:53 04:41 12.81
141 WOUTERS LUC JOKA M/50-59 27 00:53:57 04:41 12.79
142 MURRAY JONATHAN RCB M/50-59 28 00:54:03 04:42 12.77
143 DREZE CHRISTIAN NAC M/50-59 29 00:54:09 04:43 12.74
144 SOSMAN EDDY   M/50-59 30 00:54:12 04:43 12.73
145 GRACIA ISABELLE WATERLOO RUNNERS D/40-49 3 00:54:20 04:43 12.70
146 PAGE THIBAUT JE COURS A INCOURT M/30-39 47 00:54:20 04:43 12.70
147 HAUTPHENNE EDDY WATERLOO RUNNERS M/50-59 31 00:54:21 04:44 12.70
148 DUBOIS JEAN PHILIPPE JET M/30-39 48 00:54:26 04:44 12.68
149 LEBON CEDRIC AXA TEAM M/40-49 35 00:54:29 04:44 12.66
150 TIBERGHIEN ARNAUD TRAIN 7 M/20-29 21 00:54:30 04:44 12.66
151 VANWYNSBERGHE BERRNARD JAMES M/50-59 32 00:54:32 04:45 12.65
152 RANDALL CHRISTOPHER RUN4VILLERS M/50-59 33 00:54:34 04:45 12.65
153 REY PHILIPPE   M/50-59 34 00:54:38 04:45 12.63
154 DUSART FRANCOIS   M/30-39 49 00:54:41 04:45 12.62
155 PUTJ ERIC   M/40-49 36 00:54:41 04:45 12.62
156 CASTIAUX JOSE VALLEE H M/60-69 6 00:54:51 04:46 12.58
157 DEVOS RENE JE COURS A INCOURT M/50-59 35 00:54:52 04:46 12.58
158 COURTIN BRUNO RIWA M/40-49 37 00:54:58 04:47 12.55
159 VANDERLINDEN JULIE TRAIN 7 D/30-39 5 00:54:59 04:47 12.55
160 PAUWELS PHILIP RCB M/40-49 38 00:55:01 04:47 12.54
161 JOLY ANNE TRAIN 7 D/50-59 1 00:55:02 04:47 12.54
162 LEVACQ GUY LDLV M/70 &+ 2 00:55:07 04:48 12.52
163 VAUDOISEY PASCAL RCB M/50-59 36 00:55:10 04:48 12.51
164 GLORIEUX FREDERIC   M/30-39 50 00:55:10 04:48 12.51
165 DE BOCK PHILIP JAMES M/40-49 39 00:55:13 04:48 12.50
166 VIGNY LAURENT   M/50-59 37 00:55:14 04:48 12.49
167 VAN HORICK BRUNO JCPMF GENAPPE M/30-39 51 00:55:16 04:48 12.48
168 DELFOSSE CHRISTOPHE JCPMF ETTERBEEK M/30-39 52 00:55:24 04:49 12.45
169 LETELLIER JEAN LUC   M/50-59 38 00:55:32 04:50 12.42
170 BRUGGEMAN DAVID SPT WAVRE M/40-49 40 00:55:33 04:50 12.42
171 VANDERHAEGEN SAMUEL JTBBLANCS GILETS M/40-49 41 00:55:34 04:50 12.42
172 PARSY DONAT ANTILOB M/40-49 42 00:55:35 04:50 12.41
173 JOACHIM NICOLAS   M/40-49 43 00:55:35 04:50 12.41
174 LEBON LEANORE AXA TEAM M/15-19 1 00:55:36 04:50 12.41
175 VROMMAN THIERRY SPT WAVRE M/50-59 39 00:55:37 04:50 12.41
176 HOGGER ROBIN   M/50-59 40 00:55:43 04:51 12.38
177 VANBELLINGHEN JEAN FRANCOIS   M/40-49 44 00:55:47 04:51 12.37
178 DAMSTEN THIERRY   M/50-59 41 00:55:48 04:51 12.37
179 LENCHANT THIERRY SPT WAVRE M/50-59 42 00:55:49 04:51 12.36
180 FALLIER STEPHANE   M/40-49 45 00:56:01 04:52 12.32
181 LIBERT DANIEL ANTILOB M/50-59 43 00:56:02 04:52 12.31
182 MACKONIENE INGA JAMES D/40-49 4 00:56:06 04:53 12.30
183 LESOIL PHILIPPE ENJAMBEE M/50-59 44 00:56:07 04:53 12.30
184 POLUS OLIVIER   M/30-39 53 00:56:12 04:53 12.28
185 CALDERS RUDY   M/50-59 45 00:56:12 04:53 12.28
186 DEMOULIN OLIVIER JET M/40-49 46 00:56:13 04:53 12.27
187 ZERGHE PIERRE NAC M/40-49 47 00:56:14 04:53 12.27
188 GOUMET JOFFREY NAC M/40-49 48 00:56:15 04:53 12.27
189 BOUSQUET SIMON   M/30-39 54 00:56:22 04:54 12.24
190 DELVAUX CLEMENT   M/20-29 22 00:56:26 04:54 12.23
191 POT GERARD   M/60-69 7 00:56:30 04:55 12.21
192 MARGHEM GILLES   M/20-29 23 00:56:41 04:56 12.17
193 MICHIELS ERIK FORREST RUN M/40-49 49 00:56:42 04:56 12.17
194 DUCHEMIN PHILIPPE   M/30-39 55 00:56:45 04:56 12.16
195 PIRE PIERRE OLIVIER   M/20-29 24 00:56:47 04:56 12.15
196 DEPREZ JULIEN   M/40-49 50 00:56:50 04:57 12.14
197 CAMARERO VERDE LINDA   D/30-39 6 00:56:54 04:57 12.13
198 CANION CHRISTOPHE RUNNING GREZ M/50-59 46 00:56:54 04:57 12.13
199 BEN AYAD MOHAMMED KURISTO M/60-69 8 00:57:01 04:57 12.10
200 OYARZABAL JONATHAN   M/30-39 56 00:57:16 04:59 12.05
201 EDRIAT NATHALIE NAC D/50-59 2 00:57:24 04:59 12.02
202 COLSON BENOIT NAC M/50-59 47 00:57:25 05:00 12.02
203 COLMANT OLIVIER JE COURS A INCOURT M/60-69 9 00:57:29 05:00 12.00
204 MENU ERIC TOUSPORT1 M/50-59 48 00:57:29 05:00 12.00
205 DEWULF GUILLAUME   M/30-39 57 00:57:31 05:00 12.00
206 SIRAGUSA VINCENZO   M/15-19 2 00:57:32 05:00 11.99
207 FIEVEZ GAETAN   M/20-29 25 00:57:33 05:00 11.99
208 ARCHEN NATHALIE   D/30-39 7 00:57:34 05:00 11.99
209 VAN BAMIS CLAUDE   M/60-69 10 00:57:37 05:01 11.98
210 SLIMANI KARIM   M/30-39 58 00:57:48 05:02 11.94
211 DUBOIS MICHEL TEND DET M/50-59 49 00:57:51 05:02 11.93
212 COOREMAN CHRISTOPHE JCPMFMONT ST GUIBERT M/40-49 51 00:57:51 05:02 11.93
213 DE NYS LAURENT   M/40-49 52 00:57:58 05:02 11.90
214 JACOBS QUENTIN   M/30-39 59 00:58:02 05:03 11.89
215 MEURICE PHILIPPE KURISTO M/40-49 53 00:58:08 05:03 11.87
216 MARLOYE LUC JE COURS A INCOURT M/50-59 50 00:58:10 05:03 11.86
217 BACHMANN MARC RUNNING GREZ M/50-59 51 00:58:16 05:04 11.84
218 LECERF JEAN LUC JOGGANS M/60-69 11 00:58:19 05:04 11.83
219 DESMET XAVIER   M/50-59 52 00:58:20 05:04 11.83
220 WILLIAMS PAUL RUNNING GREZ M/40-49 54 00:58:21 05:04 11.83
221 LACAILLE GUY USBW ROAD TEAM M/60-69 12 00:58:21 05:04 11.83
222 DUVAL SABINE   D/40-49 5 00:58:31 05:05 11.79
223 COURCELLES GILLES EMMANUEL CEPAL M/60-69 13 00:58:35 05:06 11.78
224 DE FAYS CHRISTIAN N/A M/50-59 53 00:58:36 05:06 11.77
225 WANDERPEPEN SEBASTIEN   M/20-29 26 00:58:40 05:06 11.76
226 VANDECAVEYE FLORENCE   D/30-39 8 00:58:41 05:06 11.76
227 PALUMBO AGOSTINO KURISTO M/40-49 55 00:58:44 05:06 11.75
228 CAPOUILLEZ BENOIT ESM M/40-49 56 00:58:45 05:07 11.74
229 DETILLEUX VALERY   M/30-39 60 00:58:48 05:07 11.73
230 JANSSENS MICHELE JCPMF GENAPPE D/40-49 6 00:58:48 05:07 11.73
231 LAMBERT AUR?LIEN JTBBLANCS GILETS M/15-19 3 00:58:50 05:07 11.73
232 COMPERE MICHEL JAMES M/60-69 14 00:58:53 05:07 11.72
233 JAUNIAU DANIEL NAC M/50-59 54 00:59:00 05:08 11.69
234 FAVETTE ASTRID SPT WAVRE D/30-39 9 00:59:04 05:08 11.68
235 SCOUPE ROBIN   M/30-39 61 00:59:05 05:08 11.68
236 LEGAT VINCENT JAMES M/50-59 55 00:59:07 05:08 11.67
237 BIGOURDAN MANUEL   M/30-39 62 00:59:12 05:09 11.66
238 HANOT SERGE RONVAU M/50-59 56 00:59:17 05:09 11.64
239 ROMAIN JONATHAN   M/30-39 63 00:59:18 05:09 11.64
240 PINDEVILLE CHRISTIAN RIWA M/70 &+ 3 00:59:21 05:10 11.63
241 BULPA ANDRE JCPMFMONT ST GUIBERT M/60-69 15 00:59:35 05:11 11.58
242 NEEFS BERT HWJ HOEGARDEN M/50-59 57 00:59:35 05:11 11.58
243 MICHEL CAMILLE   D/20-29 3 00:59:36 05:11 11.58
244 CORBISIER ARNAUD RUN4VILLERS M/40-49 57 00:59:37 05:11 11.57
245 REUSS BENOIT TEND DET M/50-59 58 00:59:38 05:11 11.57
246 VANHALLE FRANCOIS-XAVIER RUN4VILLERS M/30-39 64 00:59:39 05:11 11.57
247 QUIQUE JONATHAN GAG M/30-39 65 00:59:53 05:12 11.52
248 HUYBRECHTS CHRISTOPHE   M/40-49 58 00:59:58 05:13 11.51
249 WARIN DIDIER BELGRAVE M/50-59 59 01:00:13 05:14 11.46
250 HENDERYCKX PIERRE FRANCOIS RUNNING GREZ M/50-59 60 01:00:15 05:14 11.45
251 DECAMP MARTINE JCPMF GENAPPE D/60 &+ 1 01:00:18 05:15 11.44
252 DESPEER PATRICK   M/50-59 61 01:00:21 05:15 11.43
253 MASSONET PHILIPPE BELGRAVE M/50-59 62 01:00:23 05:15 11.43
254 BRAMS HUGUES JAMES M/50-59 63 01:00:25 05:15 11.42
255 DELHOVE MARIE NAC D/30-39 10 01:00:33 05:16 11.40
256 DE CONONCK AUR?LIEN   M/20-29 27 01:00:35 05:16 11.39
257 FAIVRE STEPHANE   D/20-29 4 01:00:35 05:16 11.39
258 WEETS PHILIP   M/40-49 59 01:00:39 05:16 11.38
259 DROMELET BERANGERE SPT WAVRE D/50-59 3 01:00:41 05:17 11.37
260 HENDRICKX PIERRE JAMES M/50-59 64 01:00:42 05:17 11.37
261 MAGOTTE OLIVIER JAMES M/40-49 60 01:00:44 05:17 11.36
262 MICCOLLARD MARC ANTOINE   M/30-39 66 01:00:46 05:17 11.35
263 SCHARPE CHARLES JE COURS A INCOURT M/50-59 65 01:00:50 05:17 11.34
264 DOLPHISN GUILLAUME   M/20-29 28 01:00:55 05:18 11.33
265 GROSSEN ROLANDE TEND DET D/60 &+ 2 01:01:01 05:18 11.31
266 PIERMAN BAUDOUIN   M/60-69 16 01:01:01 05:18 11.31
267 DE LEENER JEAN-MARIE NAC M/60-69 17 01:01:04 05:19 11.30
268 BARBIER YVES USBW ROAD TEAM M/50-59 66 01:01:06 05:19 11.29
269 DE COSTER ALBERIC   M/20-29 29 01:01:09 05:19 11.28
270 DE BOIS FREDERIC WPRC M/50-59 67 01:01:11 05:19 11.28
271 GODEFRIDI THIERRY   M/60-69 18 01:01:20 05:20 11.25
272 BECLIN MARIE FELICIA JAMES D/20-29 5 01:01:21 05:20 11.25
273 MORREN THIERRY   M/30-39 67 01:01:27 05:21 11.23
274 ARGENTIN DIDIER   M/50-59 68 01:01:36 05:21 11.20
275 VERMAELEN WILLY DEMARSIN M/60-69 19 01:01:42 05:22 11.18
276 VUYLSTEKE PHILIPPE   M/50-59 69 01:01:43 05:22 11.18
277 ALLONSIUS PASCAL JAMES M/50-59 70 01:01:44 05:22 11.18
278 VERBOOMEN JEAN-LOUIS USBW ROAD TEAM M/50-59 71 01:01:45 05:22 11.17
279 GOUNARIS VOLODIA   M/20-29 30 01:01:47 05:22 11.17
280 LEJEUNE ALAIN   M/50-59 72 01:01:49 05:23 11.16
281 PERMENTIER DELPHINE JCPMFMONT ST GUIBERT D/40-49 7 01:01:50 05:23 11.16
282 PLATTEAU LAURENT RIWA M/30-39 68 01:01:51 05:23 11.16
283 LAURENT YVES   M/50-59 73 01:01:52 05:23 11.15
284 ALVAREZ BLANCO MANUEL JET M/50-59 74 01:01:54 05:23 11.15
285 BILLEN RENAUD   M/30-39 69 01:02:04 05:24 11.12
286 NELIS FRANCOIS   M/60-69 20 01:02:05 05:24 11.11
287 BAUER SIBYLLE KURISTO D/40-49 8 01:02:06 05:24 11.11
288 GHYSEN ANDRE   M/60-69 21 01:02:20 05:25 11.07
289 DEROM CHRISTIAN   M/40-49 61 01:02:22 05:25 11.06
290 THOON ANJA   D/40-49 9 01:02:29 05:26 11.04
291 NOEL BEATRICE KURISTO D/30-39 11 01:02:30 05:26 11.04
292 SIMON FLORENCE JAMES D/40-49 10 01:02:31 05:26 11.04
293 DE LANGE ETIENNE   M/60-69 22 01:02:33 05:26 11.03
294 GOOSSENS JEAN-MARC JAMES M/40-49 62 01:02:33 05:26 11.03
295 BRACKE CHARLES WPRC M/40-49 63 01:02:44 05:27 11.00
296 HOUBART AGNES RONVAU D/40-49 11 01:02:47 05:28 10.99
297 DEJONGHE JEAN-PAUL JAMES M/60-69 23 01:02:52 05:28 10.98
298 TITTEL SEBASTIEN RONVAU M/40-49 64 01:02:53 05:28 10.97
299 SOMMEREYNS PHILIPPE RONVAU M/50-59 75 01:02:56 05:28 10.96
300 LAURENT DANIEL USBW ROAD TEAM M/50-59 76 01:02:58 05:29 10.96
301 APPELMANS STEPHANE CSF M/50-59 77 01:03:00 05:29 10.95
302 RYCKEBOER MARC RIWA M/50-59 78 01:03:01 05:29 10.95
303 GALVEZ RUIZ MICHAEL CSF M/30-39 70 01:03:06 05:29 10.94
304 POULAIN ROLAND RONVAU M/70 &+ 4 01:03:08 05:29 10.93
305 LANTHIER ARNAUD   M/30-39 71 01:03:11 05:30 10.92
306 LEVECQ MATHIAS CABW M/15-19 4 01:03:12 05:30 10.92
307 SPITALERI MARIO OTS M/50-59 79 01:03:13 05:30 10.91
308 DURITA ZOLIKA JET M/50-59 80 01:03:14 05:30 10.91
309 CINAR MEHMET   M/30-39 72 01:03:16 05:30 10.91
310 DECOODT FILIP   M/40-49 65 01:03:18 05:30 10.90
311 ANGELY OLIVIER IRUN@WATERLOO M/30-39 73 01:03:21 05:31 10.89
312 D HAEMER ISABELLE NAC D/50-59 4 01:03:23 05:31 10.89
313 COOLS CHRISTIAN JAMES M/60-69 24 01:03:24 05:31 10.88
314 DEBRUYNE CHRISTOPHE RUNNING GREZ M/40-49 66 01:03:25 05:31 10.88
315 LISCHETTI JEAN FRANCOIS   M/40-49 67 01:03:27 05:31 10.87
316 DUPONT PIERRE JAMES M/60-69 25 01:03:28 05:31 10.87
317 WILQUET PIERRE JTBBLANCS GILETS M/15-19 5 01:03:30 05:31 10.87
318 DRUART FANNY RIWA D/20-29 6 01:03:31 05:31 10.86
319 AULY OLIVIER RIWA M/40-49 68 01:03:33 05:32 10.86
320 ANGELY GAETAN USBW ROAD TEAM M/70 &+ 5 01:03:35 05:32 10.85
321 VAN CAMP JEAN FRANCOIS POTOS M/40-49 69 01:03:36 05:32 10.85
322 GOFFIN MATHILDE JCPMFRAMILLIES D/30-39 12 01:03:38 05:32 10.84
323 DE BUYSER ELKE SPVI D/30-39 13 01:03:40 05:32 10.84
324 MEERT FRANK SPVI M/40-49 70 01:03:41 05:32 10.83
325 LORENT JEAN-CLAUDE JCPMFORP JAUCHE M/50-59 81 01:03:42 05:32 10.83
326 VAN ROEY BART   M/40-49 71 01:03:43 05:32 10.83
327 VANWESEL ETIENNE RIWA M/30-39 74 01:03:49 05:33 10.81
328 DE WULF LUC ESM M/60-69 26 01:03:56 05:34 10.79
329 GIOVANNANGELO ALAIN ESM M/60-69 27 01:03:58 05:34 10.79
330 MANISE CELINE   D/20-29 7 01:04:03 05:34 10.77
331 HAINE JAN KAPSALONLUC M/40-49 72 01:04:06 05:34 10.76
332 QUINTIN JEAN-JACQUES JE COURS A INCOURT M/50-59 82 01:04:10 05:35 10.75
333 ANDRE DANIELE JAMES D/50-59 5 01:04:12 05:35 10.75
334 WATERKEYN SOLANGE   D/40-49 12 01:04:12 05:35 10.75
335 KIN GEORGES RCB M/70 &+ 6 01:04:13 05:35 10.74
336 LE COQ XAVIER   M/30-39 75 01:04:15 05:35 10.74
337 LEBEAU ERIC JE COURS A INCOURT M/50-59 83 01:04:19 05:36 10.73
338 POLOME SERGE   M/50-59 84 01:04:23 05:36 10.72
339 CALONGER JENNA   D/20-29 8 01:04:24 05:36 10.71
340 HUYBRECHTS MATHIEU   M/30-39 76 01:04:31 05:37 10.69
341 ROELS ISABELLE RUNNING GREZ D/40-49 13 01:04:33 05:37 10.69
342 HECK LUDOVIC   M/20-29 31 01:04:34 05:37 10.69
343 FOULON JEAN POL ESM M/60-69 28 01:04:36 05:37 10.68
344 VANWICHELEN PHILIPPE JAMES M/40-49 73 01:04:40 05:37 10.67
345 RIO JULIE JAMES D/30-39 14 01:04:41 05:37 10.67
346 JACQUES MYRIAM CEPAL D/50-59 6 01:04:42 05:38 10.66
347 THIRION DOMINIQUE   D/50-59 7 01:04:44 05:38 10.66
348 KUYPERS EDDY JAMES M/60-69 29 01:04:47 05:38 10.65
349 LINDE BRITTA   D/40-49 14 01:04:51 05:38 10.64
350 POLOME ALAIN   M/50-59 85 01:04:53 05:39 10.63
351 DEMORTIER JEAN-FRANCOIS JAMES M/40-49 74 01:04:54 05:39 10.63
352 WERRES MARC   M/50-59 86 01:04:55 05:39 10.63
353 LEMAINE DOMINIQUE JCPMF GENAPPE M/50-59 87 01:04:55 05:39 10.63
354 VANDEN BOSSCHE THIERRY RUN4VILLERS M/40-49 75 01:04:56 05:39 10.63
355 DEBEUF STEPHANE CSF M/40-49 76 01:04:57 05:39 10.62
356 BULTOT VIRGINIE LES COUREURS ORPOIS D/30-39 15 01:04:57 05:39 10.62
357 CROQUET MICHEL   M/40-49 77 01:04:59 05:39 10.62
358 CINCOTTA AUDE   D/20-29 9 01:05:04 05:39 10.60
359 DUBOIS PAUL JAMES M/50-59 88 01:05:08 05:40 10.59
360 LEMOINE JOFFREY   M/20-29 32 01:05:09 05:40 10.59
361 BARTHELEMY POL   M/50-59 89 01:05:11 05:40 10.59
362 RIZZERIO-DEVIS LAURA JAMES D/50-59 8 01:05:13 05:40 10.58
363 BANNER CAROL JCPMFMONT ST GUIBERT D/50-59 9 01:05:16 05:41 10.57
364 LAUWERS BERNARD NAC M/50-59 90 01:05:17 05:41 10.57
365 ROBERT MAURICE   M/50-59 91 01:05:26 05:41 10.55
366 LAURENT FREDERIC CEPAL M/50-59 92 01:05:27 05:41 10.54
367 LIESSE JACQUELINE JAMES D/60 &+ 3 01:05:30 05:42 10.53
368 DESERRANNO MYRIAM JAMES D/60 &+ 4 01:05:32 05:42 10.53
369 DENIS CHRISTIAN ESM M/60-69 30 01:05:32 05:42 10.53
370 MOENNER MAXIME   M/20-29 33 01:05:34 05:42 10.52
371 DUBOIS LEA LES COUREURS ORPOIS D/15-19 1 01:05:35 05:42 10.52
372 COSEYNS HUGO RUNNING GREZ M/15-19 6 01:05:36 05:42 10.52
373 CROONENBORGHS JULIEN   M/30-39 77 01:05:36 05:42 10.52
374 TREFOIS SERGE RONVAU M/50-59 93 01:05:40 05:43 10.51
375 TILMAN GUSTAVE   M/60-69 31 01:05:40 05:43 10.51
376 DUPUIS LAURENCE JCPMF GENAPPE D/40-49 15 01:05:56 05:44 10.47
377 DIERCKX MARIE   D/30-39 16 01:06:02 05:45 10.45
378 VANDEN DRIESCH FRANCOIS DACM M/50-59 94 01:06:05 05:45 10.44
379 DEPREZ CHRISTIAN RONVAU M/60-69 32 01:06:10 05:45 10.43
380 FABRY PATRICK   M/50-59 95 01:06:11 05:45 10.43
381 TULPINCK GISELE JAMES D/50-59 10 01:06:14 05:46 10.42
382 VANKEERBERGHEN JACQUES JE COURS A INCOURT M/50-59 96 01:06:17 05:46 10.41
383 DECOSTER MICHEL   M/60-69 33 01:06:20 05:46 10.40
384 GEERAERTS JOS MYSTERE M/50-59 97 01:06:28 05:47 10.38
385 GEERING ISABELLE RUNNING GREZ D/40-49 16 01:06:33 05:47 10.37
386 COUDRAY RACHEL AXA TEAM D/30-39 17 01:06:39 05:48 10.35
387 BERREWAERTS FLORENCE USBW ROAD TEAM D/20-29 10 01:06:47 05:48 10.33
388 MONETTE SANDRINE   D/40-49 17 01:06:50 05:49 10.32
389 ALAIME SEBASTIEN SPT WAVRE M/40-49 78 01:06:52 05:49 10.32
390 PARMENTIER KARINE NAC D/40-49 18 01:06:55 05:49 10.31
391 SCUTNAIRE BRUNO   M/50-59 98 01:06:56 05:49 10.31
392 GOETHALS MARTINE   D/40-49 19 01:06:57 05:49 10.31
393 NOTEZ STEPHANIE NAC D/40-49 20 01:07:07 05:50 10.28
394 SCHELLENS CHRISTIAN NAC M/50-59 99 01:07:08 05:50 10.28
395 LORAUX ETIENNE AXA TEAM M/50-59 100 01:07:10 05:50 10.27
396 KETTLER KATHRIN NAC D/30-39 18 01:07:12 05:51 10.27
397 DELOY EMMANUELLE   D/30-39 19 01:07:13 05:51 10.27
398 VLAMINCK NATACHA TEND DET D/40-49 21 01:07:15 05:51 10.26
399 COUTELLIER MARIE LOUISE ESM D/60 &+ 5 01:07:16 05:51 10.26
400 TIELEMANS PHILIPPE RUN4VILLERS M/50-59 101 01:07:17 05:51 10.26
401 ROUSSEAU LAURENCE ACLO D/30-39 20 01:07:23 05:52 10.24
402 THIBAUT THIERRY   M/40-49 79 01:07:26 05:52 10.23
403 BENNACEUR NOUR   D/20-29 11 01:07:31 05:52 10.22
404 DENIS VINCENT SWIFT M/50-59 102 01:07:40 05:53 10.20
405 DELCROIX ANNE JAMES D/50-59 11 01:07:40 05:53 10.20
406 MOTTARO EMELINE   D/15-19 2 01:07:42 05:53 10.19
407 BLAFFART PHILIPPE   M/60-69 34 01:07:44 05:53 10.19
408 DUMON SYLVIE   D/30-39 21 01:07:45 05:53 10.18
409 RENDERS LUC JE COURS A INCOURT M/50-59 103 01:07:47 05:54 10.18
410 GHISLAIN NICOLAS   M/30-39 78 01:07:50 05:54 10.17
411 GUSTIN STEPHANIE   D/20-29 12 01:07:52 05:54 10.17
412 CHARLIER HELOISE   D/30-39 22 01:07:53 05:54 10.16
413 MAURISSET ALEXANDRE JCPMF GENAPPE M/40-49 80 01:07:55 05:54 10.16
414 HERBILLON CATHERINE JAMES D/50-59 12 01:07:57 05:55 10.15
415 DUPLAT FRANCOISE JAMES D/40-49 22 01:08:00 05:55 10.15
416 SERRE HEIDI JAMES D/50-59 13 01:08:01 05:55 10.14
417 HUBER REGINA ENJAMBEE D/50-59 14 01:08:01 05:55 10.14
418 NOLF CHRISTOPHE   M/50-59 104 01:08:03 05:55 10.14
419 DE MOOR RUDI   M/50-59 105 01:08:04 05:55 10.14
420 TIGNON MARYLENE   D/40-49 23 01:08:05 05:55 10.13
421 LECOMTE DIDIER ROS M/40-49 81 01:08:07 05:55 10.13
422 MELARD JEAN-LUC JAMES M/60-69 35 01:08:08 05:55 10.13
423 LIENARD JEAN-MARC   M/60-69 36 01:08:09 05:56 10.12
424 EHLINGER ALAIN AVT M/60-69 37 01:08:15 05:56 10.11
425 GILLIOT ALAIN TRIKV M/50-59 106 01:08:19 05:56 10.10
426 DUPUIS BENOIT JAMES M/60-69 38 01:08:24 05:57 10.09
427 TASSET PHILIPPE JAMES M/50-59 107 01:08:25 05:57 10.09
428 WILLIOT CHANTAL JAMES D/50-59 15 01:08:39 05:58 10.05
429 PLAISANT VINCENT   M/50-59 108 01:08:39 05:58 10.05
430 CLERBAUX MURIEL JAMES D/40-49 24 01:08:40 05:58 10.05
431 VEREERTBRUGGHEN DANIEL STIB M/60-69 39 01:08:41 05:58 10.05
432 PIRAUX DOMINIQUE JAMES M/60-69 40 01:08:41 05:58 10.05
433 PEETERS HERMAN HOOIBERGLOPERS M/70 &+ 7 01:08:44 05:59 10.04
434 BROZE KATHY NAC D/40-49 25 01:08:45 05:59 10.04
435 SYMONS PETRO NAC M/60-69 41 01:08:46 05:59 10.03
436 RONDOU PHILIPPE JCPMF GENAPPE M/50-59 109 01:08:48 05:59 10.03
437 SOUPART CAROLINE NAC D/40-49 26 01:08:52 05:59 10.02
438 BODEUX CLAIRE JAMES D/50-59 16 01:08:54 05:59 10.01
439 DEFERIERE JULIE JAMES D/40-49 27 01:08:55 06:00 10.01
440 CRUTZEN LUC   M/40-49 82 01:09:02 06:00 10.00
441 HAESENNE NATHALIE JCPMFMONT ST GUIBERT D/40-49 28 01:09:07 06:01 9.98
442 LE LIEVRE FREDDY KURISTO M/60-69 42 01:09:12 06:01 9.97
443 DEMARET NATHALIE NAC D/30-39 23 01:09:14 06:01 9.97
444 MAKINTOSH PHILIPPE WPRC M/40-49 83 01:09:18 06:02 9.96
445 ESCA PABLO   M/15-19 7 01:09:19 06:02 9.95
446 FLAMANT PATRICK   M/50-59 110 01:09:26 06:02 9.94
447 SMAGGE PHILIPPE   M/50-59 111 01:09:28 06:02 9.93
448 CRUCQ ANNE SOPHIE   D/50-59 17 01:09:32 06:03 9.92
449 DE MEES MARC HOOIBERGLOPERS M/70 &+ 8 01:09:33 06:03 9.92
450 HENNEQUEN EMMANUL RUNNING GREZ M/40-49 84 01:09:33 06:03 9.92
451 GENARD GERALDINE   D/20-29 13 01:09:34 06:03 9.92
452 ROZENBLAT STEPHANE NAC M/50-59 112 01:09:35 06:03 9.92
453 VAN LANGENDONCK LUC HOOIBERGLOPERS M/50-59 113 01:09:36 06:03 9.91
454 LINARD BENEDICTE RIWA D/40-49 29 01:09:40 06:03 9.90
455 SAROLEA SYLVIE JAMES D/40-49 30 01:09:41 06:04 9.90
456 HENRY RODOLPHE   M/50-59 114 01:09:42 06:04 9.90
457 ESCAJADILLO ASUNCION BAV M/60-69 43 01:09:48 06:04 9.89
458 ESCAJADILLO VERA BAV D/40-49 31 01:09:49 06:04 9.88
459 SCALAIS DOMINIQUE JAMES D/40-49 32 01:09:51 06:04 9.88
460 CHRISTOPH MARC   M/40-49 85 01:09:54 06:05 9.87
461 DENEVE PIERRE CEPAL M/60-69 44 01:09:56 06:05 9.87
462 VANDERLINDEN DANIEL   M/40-49 86 01:10:02 06:05 9.85
463 CIOLACU OLESEA JAMES D/30-39 24 01:10:02 06:05 9.85
464 HAYEZ CECILE JAMES D/40-49 33 01:10:03 06:05 9.85
465 HOLVOET DOMINIQUE SPT WAVRE D/50-59 18 01:10:03 06:05 9.85
466 BONNINGUE MAXIME   M/30-39 79 01:10:06 06:06 9.84
467 WAUQUIER MARC   M/60-69 45 01:10:16 06:07 9.82
468 STIENSMA ERIC WPRC M/50-59 115 01:10:16 06:07 9.82
469 BINARD CAROLINE JAMES D/40-49 34 01:10:21 06:07 9.81
470 THOMAS STEPHANIE JCPMF GENAPPE D/30-39 25 01:10:21 06:07 9.81
471 SEGGIO PINO NAC M/70 &+ 9 01:10:23 06:07 9.80
472 LOECKX FRANCIS OEH M/50-59 116 01:10:25 06:07 9.80
473 DE PRINS JEAN-FRANCOIS   M/20-29 34 01:10:27 06:08 9.79
474 NOIZET MARIE ALICE ROS D/50-59 19 01:10:29 06:08 9.79
475 PANNEELS JEAN-JACQUES AXA TEAM M/60-69 46 01:10:31 06:08 9.78
476 CRAPS KEVIN ARCH M/20-29 35 01:10:33 06:08 9.78
477 CLEIREN OLIVIER   M/30-39 80 01:10:37 06:08 9.77
478 DURITA JANIKA JET M/50-59 117 01:10:42 06:09 9.76
479 GOUDMAEKE CLAUDE JE COURS A INCOURT M/50-59 118 01:10:46 06:09 9.75
480 CLAUSS CAMILLE   D/20-29 14 01:10:48 06:09 9.75
481 PARMESAN SANDRO RIWA M/50-59 119 01:10:48 06:09 9.75
482 FEYAERTS MARC JE COURS A INCOURT M/50-59 120 01:10:50 06:10 9.74
483 DE DONDER JULIE RIAAC D/30-39 26 01:10:52 06:10 9.74
484 CLARYS ANGELIQUE JCPMFMONT ST GUIBERT D/40-49 35 01:10:56 06:10 9.73
485 LEEMANS DIDIER ANTILOB M/50-59 121 01:10:56 06:10 9.73
486 PIRAUX VIRGINIE   D/20-29 15 01:11:02 06:11 9.71
487 DECOCQ FRANCOISE JAMES D/50-59 20 01:11:03 06:11 9.71
488 VANDERLIN CHARL?NE NAC D/20-29 16 01:11:06 06:11 9.70
489 DUFAYS ALAIN   M/50-59 122 01:11:12 06:11 9.69
490 MIKKELSEN DALIA KURISTO D/60 &+ 6 01:11:18 06:12 9.68
491 MIGEAL JEAN LOUIS JE COURS A INCOURT M/60-69 47 01:11:21 06:12 9.67
492 ALAIME AURELIE SPT WAVRE D/30-39 27 01:11:24 06:13 9.66
493 EVRARD STEPHANIE JCPMFMONT ST GUIBERT D/30-39 28 01:11:25 06:13 9.66
494 KUBORN DAVID WPRC M/40-49 87 01:11:30 06:13 9.65
495 MACHADO ANTONIO RONVAU M/60-69 48 01:11:31 06:13 9.65
496 WOUTERS QUENTIN RONVAU M/20-29 36 01:11:32 06:13 9.65
497 GHISDAL MANON WPRC D/20-29 17 01:11:34 06:13 9.64
498 HERION ERIC   M/40-49 88 01:11:45 06:14 9.62
499 HUPPE STEPHANE RONVAU M/60-69 49 01:11:52 06:15 9.60
500 PATUREAU XAVIER   M/40-49 89 01:11:53 06:15 9.60
501 PIRSON BERNARD N/A M/50-59 123 01:12:00 06:16 9.58
502 GEZELS EMMANUEL ESM M/30-39 81 01:12:08 06:16 9.57
503 DOBLAS FREDERIC   M/40-49 90 01:12:11 06:17 9.56
504 JACQUEMIN DOMINIQUE JOGGANS D/40-49 36 01:12:11 06:17 9.56
505 POTY DELPHINE ESM D/30-39 29 01:12:13 06:17 9.55
506 BARKANI RACHIDA   D/50-59 21 01:12:15 06:17 9.55
507 VILLATTE VERONIQUE   D/50-59 22 01:12:21 06:17 9.54
508 HAYT FLORENCE   D/20-29 18 01:12:33 06:19 9.51
509 TIMMERMANS QUENTIN   M/20-29 37 01:12:38 06:19 9.50
510 DESERRANNO PATRICK JAMES M/60-69 50 01:12:39 06:19 9.50
511 SOENEN JOSE   M/60-69 51 01:12:41 06:19 9.49
512 BILEM NATHALIE ANTILOB D/50-59 23 01:12:44 06:19 9.49
513 VELGHE CLAUDE   M/50-59 124 01:12:46 06:20 9.48
514 BRUYNINCKX JEAN MARIE   M/50-59 125 01:12:47 06:20 9.48
515 MANSY MICHELE AXA TEAM D/50-59 24 01:12:49 06:20 9.48
516 PIETTON LAURENCE ESM D/40-49 37 01:12:49 06:20 9.48
517 DANTHINE FLORENCE ESM D/40-49 38 01:12:50 06:20 9.47
518 SAUVEGARDE ANNE PASCALE SPT WAVRE D/50-59 25 01:12:51 06:20 9.47
519 ELEN CHRISTIAN   M/60-69 52 01:12:53 06:20 9.47
520 BASTIAENS NADINE   D/40-49 39 01:12:56 06:21 9.46
521 GUILMAIN BENOIT   M/30-39 82 01:13:05 06:21 9.44
522 CAMMAS CLAUDIA RCB D/50-59 26 01:13:06 06:21 9.44
523 TROIA GIOVANNA ENJAMBEE D/50-59 27 01:13:08 06:22 9.43
524 HOCK FRANCOISE JAMES D/50-59 28 01:13:09 06:22 9.43
525 DE BACKER FRANCOISE RIWA D/50-59 29 01:13:10 06:22 9.43
526 VOKAR ETIENNE USBW ROAD TEAM M/70 &+ 10 01:13:18 06:22 9.41
527 ARNO PATSY JAMES D/40-49 40 01:13:20 06:23 9.41
528 GOBLET CHANTAL SPT WAVRE D/50-59 30 01:13:23 06:23 9.40
529 HECQ ANNE FRANCOISE NAC D/50-59 31 01:13:27 06:23 9.39
530 THIRIART VERA HOOIBERGLOPERS D/50-59 32 01:13:29 06:23 9.39
531 BAIKRICH GUY RCB M/70 &+ 11 01:13:30 06:23 9.39
532 CRELOT MARIE PIERRE JAMES D/20-29 19 01:13:38 06:24 9.37
533 BAUFAYT BARBARA ROS D/40-49 41 01:13:41 06:24 9.36
534 DE JONGE VALERIE JAMES D/40-49 42 01:13:41 06:24 9.36
535 DELAERE BENEDICTE JAMES D/50-59 33 01:13:42 06:25 9.36
536 KEIMEUL CATHERINE ROS D/50-59 34 01:13:42 06:25 9.36
537 AUTEQUITTE BENEDICTE ROS D/50-59 35 01:13:43 06:25 9.36
538 BAWIN BRIGITTE JAMES D/60 &+ 7 01:13:46 06:25 9.35
539 DELHAGE JEAN-PIERRE SPT WAVRE M/60-69 53 01:13:52 06:25 9.34
540 REMY NOELLE SPT WAVRE D/30-39 30 01:13:57 06:26 9.33
541 GARCIA PALOMA JOG GAST D/40-49 43 01:14:00 06:26 9.32
542 MARTIN PHILIPPE   M/60-69 54 01:14:08 06:27 9.31
543 VERHAEGHE JEROME   M/30-39 83 01:14:10 06:27 9.30
544 VANDEN BORRE EMILE RIWA M/70 &+ 12 01:14:30 06:29 9.26
545 MAERTEN EMILIE JET D/30-39 31 01:14:33 06:29 9.26
546 COLLETTE FREDERIC JAMES M/40-49 91 01:14:37 06:29 9.25
547 FALIER ANNE   D/40-49 44 01:14:41 06:30 9.24
548 KAUFMANN ALAIN JOGGANS M/60-69 55 01:14:43 06:30 9.23
549 MAGIS CHANTAL   D/40-49 45 01:14:45 06:30 9.23
550 DELANDE CECILE   D/40-49 46 01:14:46 06:30 9.23
551 MOREAU FRANCOISE CABW D/50-59 36 01:14:48 06:30 9.22
552 BOURCE MELANIE JAMES D/30-39 32 01:14:57 06:31 9.21
553 JEANFILS JOHANNA   D/30-39 33 01:15:08 06:32 9.18
554 VLAMINCK ANDRE ESM M/60-69 56 01:15:09 06:32 9.18
555 NOWAK BERENGERE WPRC D/40-49 47 01:15:10 06:32 9.18
556 GOOSSENS JEAN SPT WAVRE M/60-69 57 01:15:18 06:33 9.16
557 HONNORE MAGALI   D/30-39 34 01:15:25 06:33 9.15
558 LORRENTOP MARINE   D/50-59 37 01:15:34 06:34 9.13
559 RAMIER NICOLE JAMES D/60 &+ 8 01:15:34 06:34 9.13
560 LAMBERT BERNADETTE SPT WAVRE D/60 &+ 9 01:15:37 06:35 9.12
561 GERVIS SYLVIE JAMES D/60 &+ 10 01:15:42 06:35 9.11
562 VANDER VORST MURIEL JAMES D/40-49 48 01:15:46 06:35 9.11
563 LAGRANGE ISABELLE JCPMFMONT ST GUIBERT D/40-49 49 01:15:51 06:36 9.10
564 MORLOT VIRGINIE NAC D/30-39 35 01:16:05 06:37 9.07
565 HUART CATHERINE JAMES D/50-59 38 01:16:08 06:37 9.06
566 DAUPHIN JACQUES JAMES M/60-69 58 01:16:09 06:37 9.06
567 DEVILLERS SOPHIE JAMES D/30-39 36 01:16:10 06:37 9.06
568 CHARLIER DIMITRI   M/40-49 92 01:16:11 06:37 9.06
569 VANHUFFELEN JOSSELINE AXA TEAM D/60 &+ 11 01:16:14 06:38 9.05
570 WOUTERS WILLIAM RONVAU M/50-59 126 01:16:15 06:38 9.05
571 LECONTE SOPHIE WPRC D/40-49 50 01:16:45 06:40 8.99
572 LEKEUX JEAN-MARIE CABW M/60-69 59 01:16:45 06:40 8.99
573 LAHAYE OLIVIER RUNNING GREZ M/50-59 127 01:16:47 06:41 8.99
574 LOMMERS ANNE JE COURS A INCOURT D/50-59 39 01:16:51 06:41 8.98
575 BATAILLE MANON RUNNING GREZ D/20-29 20 01:16:52 06:41 8.98
576 RAMAEKERS GENEVIEVE   D/40-49 51 01:16:52 06:41 8.98
577 VAN LOO ARMAND GANSHOREN M/70 &+ 13 01:16:53 06:41 8.97
578 MAUS MADELEINE NAC D/60 &+ 12 01:16:53 06:41 8.97
579 LOOP AUDREY JCPMF GENAPPE D/20-29 21 01:16:53 06:41 8.97
580 DE WAEL LUC   M/50-59 128 01:16:55 06:41 8.97
581 VINCENT LOUISE MARIE SPT WAVRE D/40-49 52 01:16:59 06:42 8.96
582 DEVOS ANTHONY   M/50-59 129 01:17:04 06:42 8.95
583 VARVENNE ERIC   M/50-59 130 01:17:04 06:42 8.95
584 CERINI CARLA ESM D/50-59 40 01:17:08 06:42 8.95
585 COPPENS PHILIPPE RUN4VILLERS M/50-59 131 01:17:10 06:43 8.94
586 FONTAINE BERNARD KURISTO M/50-59 132 01:17:18 06:43 8.93
587 THIBAUT PATRICIA JAMES D/50-59 41 01:17:19 06:43 8.92
588 BORGNIET CHRISTIAN JAMES M/50-59 133 01:17:20 06:43 8.92
589 GILSON SOPHIE   D/40-49 53 01:17:28 06:44 8.91
590 GAIGNAGE ISABELLE NAC D/40-49 54 01:17:43 06:45 8.88
591 THIRION FRANCOISE ESM D/60 &+ 13 01:17:47 06:46 8.87
592 HOURLAY GERALD   M/30-39 84 01:17:52 06:46 8.86
593 PALUMBO SALVATORE KURISTO M/70 &+ 14 01:17:54 06:46 8.86
594 DE WAEL PIERRE   M/20-29 38 01:18:00 06:47 8.85
595 BEBE JEAN-ALFRED RCB M/70 &+ 15 01:18:06 06:47 8.83
596 DESCAMPE SYBILLE SPT WAVRE D/30-39 37 01:18:09 06:48 8.83
597 LOOZE VINCENT JAMES M/50-59 134 01:18:11 06:48 8.83
598 NUYTTEN STEPHANIE JE COURS A INCOURT D/40-49 55 01:18:14 06:48 8.82
599 MEUNIER GARANCE   D/30-39 38 01:18:15 06:48 8.82
600 FLAMAND VALERIE AXA TEAM D/50-59 42 01:18:21 06:49 8.81
601 VAN DE VIJVERE ANN JAMES D/40-49 56 01:18:22 06:49 8.80
602 DELHAYE JEAN-CHARLES FRANCKYS TEAM M/50-59 135 01:18:24 06:49 8.80
603 PEREMANS GAELLE   D/30-39 39 01:18:26 06:49 8.80
604 JOPPART CHRISTINA COUROBAR D/40-49 57 01:18:31 06:50 8.79
605 JASPARD LAURENCE ROS D/40-49 58 01:18:36 06:50 8.78
606 TCHEKEMIAN NICOLE ROS D/60 &+ 14 01:18:37 06:50 8.78
607 HAUTECOEUR WIVINE NAC D/50-59 43 01:18:37 06:50 8.78
608 FONDAIRE POMONE   D/15-19 3 01:18:50 06:51 8.75
609 RAEMDONCK ISABELLE   D/20-29 22 01:18:55 06:52 8.74
610 LECLER MARC   M/50-59 136 01:19:07 06:53 8.72
611 BUYENS JOHAN BAV M/60-69 60 01:19:10 06:53 8.72
612 GUSBIN CATHY SWIFT D/50-59 44 01:19:16 06:54 8.70
613 TURNEER ROGER USBW ROAD TEAM M/70 &+ 16 01:19:19 06:54 8.70
614 WILLEMS DENIS   M/40-49 93 01:19:23 06:54 8.69
615 ORBAN EMILIE.   D/30-39 40 01:19:28 06:55 8.68
616 GRAVY JULIE CABW D/20-29 23 01:19:34 06:55 8.67
618 BONTE GUILLAUME   M/20-29 39 01:19:37 06:55 8.67
619 DE BRANDT THIERRY   M/40-49 94 01:19:38 06:55 8.66
620 DE POTTER BENOIT CS DYLE M/50-59 137 01:19:41 06:56 8.66
621 VANHANDENHOVE DOMINIQUE   D/50-59 45 01:19:46 06:56 8.65
622 LEGROS SYLVIE JE COURS A INCOURT D/30-39 41 01:19:47 06:56 8.65
623 DEMEUS CHRISTINE LES COUREURS ORPOIS D/50-59 46 01:19:50 06:57 8.64
624 DEBIERE ROMANE CABW D/15-19 4 01:20:01 06:57 8.62
625 BOLAIN NANCY RIWA D/50-59 47 01:20:08 06:58 8.61
626 BORSUS ELISABETH RIWA D/30-39 42 01:20:12 06:58 8.60
627 VERBIEST CARINE JAMES D/50-59 48 01:20:12 06:58 8.60
628 WERRES FABIENNE SPT WAVRE D/60 &+ 15 01:20:18 06:59 8.59
629 GRAWET NICOLAS ESM M/30-39 85 01:20:22 06:59 8.59
630 WINS FLORENCE ESM D/30-39 43 01:20:22 06:59 8.59
631 REY NANCY   D/40-49 59 01:20:26 07:00 8.58
632 DERIDDER ISABELLE   D/30-39 44 01:20:32 07:00 8.57
633 DERIDDER VERONIQUE   D/30-39 45 01:20:33 07:00 8.57
634 VAN HAUTE PAULINE JE COURS A INCOURT D/20-29 24 01:20:37 07:01 8.56
635 MELCHIOR FABIENNE NAC D/50-59 49 01:20:38 07:01 8.56
636 GLENISSON EDDY LDLV M/70 &+ 17 01:20:44 07:01 8.55
637 VAN CRAENENBROECK PASCAL LDLV M/50-59 138 01:20:45 07:01 8.54
638 SCHREIBER ANNABELLE WPRC D/20-29 25 01:20:48 07:02 8.54
639 LEMAL BENEDICTE   D/40-49 60 01:20:59 07:03 8.52
640 GROGNET SONIA JAMES D/50-59 50 01:21:01 07:03 8.52
641 VANDEREYD ERIC   M/50-59 139 01:21:05 07:03 8.51
642 LOISEAU MICHEL   M/60-69 61 01:21:09 07:03 8.50
643 LOUIS PHILIPPE   M/50-59 140 01:21:11 07:04 8.50
644 VALLE RAMIREZ MARIA JOGGANS D/40-49 61 01:21:16 07:04 8.49
645 HANCHARD COLETTE SPT WAVRE D/50-59 51 01:21:39 07:06 8.45
646 EVRARD JOSIANNE RIWA D/60 &+ 16 01:21:41 07:06 8.45
647 GEERAERD FRANCOIS   M/60-69 62 01:21:42 07:06 8.45
648 DANDOY AURELIE RIWA D/30-39 46 01:21:48 07:07 8.44
649 VANDER LINDEN VERONIQUE RUNNING GREZ D/50-59 52 01:21:49 07:07 8.43
650 VERMEYLEN NANCY RIWA D/40-49 62 01:21:50 07:07 8.43
651 BODSON NATHALIE CABW D/30-39 47 01:21:53 07:07 8.43
652 MOUFFE DOROTHEE SPT WAVRE D/40-49 63 01:22:00 07:08 8.41
653 JOMARD EDITH   D/50-59 53 01:22:05 07:08 8.41
654 BRISACK THIERRY RIWA M/50-59 141 01:22:07 07:08 8.40
655 VERSAILLES ELISABETH RIWA D/40-49 64 01:22:10 07:09 8.40
656 GALLEZ MICHELE RIWA D/50-59 54 01:22:12 07:09 8.39
657 PIQUARD BENOIT RIWA M/50-59 142 01:22:13 07:09 8.39
658 MOTTARD JOELLE RIWA D/50-59 55 01:22:14 07:09 8.39
659 DENIS MARCEL RONVAU M/70 &+ 18 01:22:16 07:09 8.39
660 COIRBAY REGINE RIWA D/40-49 65 01:22:17 07:09 8.39
661 BISSOT CHRISTINE   D/50-59 56 01:22:25 07:10 8.37
662 CAZALLE CELINE NAC D/40-49 66 01:22:28 07:10 8.37
663 PAUWELS ANTOINE FANAJOG M/50-59 143 01:22:54 07:13 8.32
664 FRISQUE EVELINE   D/30-39 48 01:22:56 07:13 8.32
665 GOENS LINDA OEH D/50-59 57 01:23:01 07:13 8.31
666 VLAMINCK GEORGET TEND DET M/70 &+ 19 01:23:54 07:18 8.22
667 MARTENS SANDRA RUNNING GREZ D/40-49 67 01:24:03 07:19 8.21
668 DEPREZ ALAIN   M/50-59 144 01:24:47 07:22 8.14
669 LOCUS DANIELLE JAMES D/50-59 58 01:25:35 07:27 8.06
670 WILPART GILBERT SPT WAVRE M/60-69 63 01:25:41 07:27 8.05
671 CROONENBORGHS ANNICK JCPMF GENAPPE D/50-59 59 01:25:47 07:28 8.04
672 VAN POUCKE VALERIE   D/40-49 68 01:26:30 07:31 7.98
673 MARCHAL NATHALIE   D/40-49 69 01:26:41 07:32 7.96
674 PLETINCKX DIMITRI   M/40-49 95 01:27:01 07:34 7.93
675 OLEFFE DOMINIQUE COUREURS ORPOIS D/40-49 70 01:27:48 07:38 7.86
676 STORZ DORINE RIWA D/40-49 71 01:27:50 07:38 7.86
677 D HEERE JEAN-CLAUDE JCPMFORME M/50-59 145 01:27:51 07:38 7.85
678 WALEWYNS ANNE   D/40-49 72 01:28:09 07:40 7.83
679 NOLLE MICHAEL   M/40-49 96 01:28:51 07:44 7.77
680 VANSTEENKSTE NADINE   D/50-59 60 01:29:32 07:47 7.71
681 MOREAU PATRICIA ANTILOB D/50-59 61 01:29:37 07:48 7.70
682 LEFEBVRE MARINE   D/20-29 26 01:29:42 07:48 7.69
683 LAUNAY VIRGINIE RIWA D/50-59 62 01:29:54 07:49 7.68
684 DUSSART GUY JAMES M/40-49 97 01:30:08 07:50 7.66
685 DAOUD ALEXIA   D/40-49 73 01:34:38 08:14 7.29
686 BERGIERS DEBORAH   D/20-29 27 01:34:39 08:14 7.29
687 DUVIVIER CHRISTINE JAMES D/50-59 63 01:34:40 08:14 7.29
688 BLIN CLAUDE IRUN@WATERLOO M/70 &+ 20 01:34:42 08:14 7.29
689 VAN DE VIJVERE VERONIQUE JAMES D/50-59 64 01:35:08 08:16 7.25
690 GODEFROID PASCALE JAMES D/50-59 65 01:35:09 08:16 7.25
691 FIGYS EDGARD AXA TEAM M/70 &+ 21 01:37:14 08:27 7.10
692 DE LATTER LAURENCE LES COUREURS ORPOIS D/40-49 74 01:42:30 08:55 6.73
693 PEETERMANS GHISLAINE   D/50-59 66 01:44:25 09:05 6.61
694 DU FOUR AURELIE JAMES D/20-29 28 01:45:59 09:13 6.51
695 WAUCAMPT REGGIE ANTILOB M/60-69 64 01:46:01 09:13 6.51
696 FINE PAUL RCB M/60-69 65 01:47:00 09:18 6.45
697 DEHAYE ANNE JAMES D/40-49 75 01:47:00 09:18 6.45
698 FLAHAUX DENIS RONVAU M/20-29 40 01:47:00 09:18 6.45
699 MORIS LAURENT RCB M/40-49 98 01:47:00 09:18 6.45
700 BEBE JANICK RCB D/50-59 67 01:47:00 09:18 6.45
701 LUYCKX JOKE HOOIBERGLOPERS D/50-59 68 01:47:00 09:18 6.45
702 DE BIE WALTER HOOIBERGLOPERS M/60-69 66 01:47:00 09:18 6.45
703 VAN LOO ROGER HOOIBERGLOPERS M/60-69 67 01:47:00 09:18 6.45
704 CROMBOOM DANIEL HOOIBERGLOPERS M/70 &+ 22 01:47:00 09:18 6.45
705 OOMS CONNY DE LUSTIGE STAPPERS D/50-59 69 01:47:00 09:18 6.45
706 LAMBERT FRANCIS RONVAU M/60-69 68 01:47:00 09:18 6.45
707 BORGWALD LUDWIG DEMARSIN M/60-69 69 01:47:00 09:18 6.45
708 HAINE MARIE JOSE DEMARSIN D/50-59 70 01:47:00 09:18 6.45
709 MARCOEN MARC RONVAU M/70 &+ 23 01:47:00 09:18 6.45
710 BISKOS VANGELIS KYOKUSHI M/60-69 70 01:47:00 09:18 6.45
711 VAN BOXMEER JO?LLE   D/50-59 71 01:47:00 09:18 6.45
712 JOURET ANDREE RCB D/60 &+ 17 01:47:00 09:18 6.45
713 ARTOOS ARMAND HOOIBERGLOPERS M/70 &+ 24 01:47:00 09:18 6.45
714 BEBE ARLETTE RCB D/60 &+ 18 01:47:00 09:18 6.45
715 PALUMBO MARIA KURISTO D/60 &+ 19 01:47:00 09:18 6.45
716 CLUYSE ANNE JAMES D/50-59 72 01:47:00 09:18 6.45
717 BAUDUIN DIDIER NAC M/50-59 146 01:47:00 09:18 6.45
718 VAN WEERST KATRIEN   D/50-59 73 01:47:00 09:18 6.45
719 MONNOYE MURIEL WPRC D/40-49 76 01:47:00 09:18 6.45
720 MACKINTOSH EDOUARD   M/70 &+ 25 01:47:00 09:18 6.45
721 CORNELIS BRIGITTE RIWA D/50-59 74 01:47:00 09:18 6.45
722 VAN LAETHEM GUY RIWA M/50-59 147 01:47:00 09:18 6.45
723 FONSECA DOLERES RCB D/50-59 75 01:47:00 09:18 6.45